Time;durP1;ratioP1;P1;durP2;ratioP2;P2;SDS_P1;SDS_P2;PMS_P1;PMS_P2;Temp;Humidity;BMP_temperature;BMP_pressure;BME280_temperature;BME280_humidity;BME280_pressure;Samples;Min_cycle;Max_cycle;Signal;HPM_P1;HPM_P2
2022/11/15 00:00:20;;;;;;;;;;;27.30;96.60;;;;;;5084544;28;20110;-44
2022/11/15 00:02:46;;;;;;;;;;;27.30;96.90;;;;;;5049721;28;19954;-45
2022/11/15 00:05:13;;;;;;;;;;;27.20;96.60;;;;;;5084076;28;19919;-42
2022/11/15 00:07:39;;;;;;;;;;;27.20;96.60;;;;;;5084452;28;19915;-41
2022/11/15 00:10:06;;;;;;;;;;;27.20;96.60;;;;;;5085467;28;19912;-47
2022/11/15 00:12:32;;;;;;;;;;;27.20;96.60;;;;;;5066776;28;19949;-51
2022/11/15 00:14:58;;;;;;;;;;;27.20;96.50;;;;;;5084488;28;19904;-46
2022/11/15 00:17:24;;;;;;;;;;;27.20;96.40;;;;;;5084247;28;19913;-49
2022/11/15 00:19:50;;;;;;;;;;;27.20;96.40;;;;;;5084572;28;19908;-45
2022/11/15 00:22:17;;;;;;;;;;;27.20;96.40;;;;;;5084105;28;19983;-45
2022/11/15 00:24:43;;;;;;;;;;;27.20;96.40;;;;;;5084508;28;19909;-45
2022/11/15 00:27:09;;;;;;;;;;;27.20;96.40;;;;;;5084851;28;19916;-44
2022/11/15 00:29:37;;;;;;;;;;;27.20;96.30;;;;;;5084533;28;19909;-48
2022/11/15 00:32:03;;;;;;;;;;;27.10;96.30;;;;;;5083895;28;19916;-50
2022/11/15 00:34:29;;;;;;;;;;;27.10;96.30;;;;;;5084044;28;19908;-45
2022/11/15 00:36:56;;;;;;;;;;;27.10;96.30;;;;;;5083976;28;20046;-44
2022/11/15 00:39:22;;;;;;;;;;;27.10;96.20;;;;;;5084604;28;19994;-43
2022/11/15 00:41:48;;;;;;;;;;;27.10;96.30;;;;;;5085175;28;19913;-44
2022/11/15 00:44:14;;;;;;;;;;;27.10;96.30;;;;;;5066636;28;19955;-50
2022/11/15 00:46:41;;;;;;;;;;;27.10;96.40;;;;;;5083665;28;19920;-46
2022/11/15 00:49:07;;;;;;;;;;;27.00;96.40;;;;;;5065908;28;20096;-46
2022/11/15 00:51:33;;;;;;;;;;;27.00;96.40;;;;;;5083494;28;19968;-45
2022/11/15 00:53:59;;;;;;;;;;;27.10;96.40;;;;;;5087243;28;19974;-44
2022/11/15 00:56:25;;;;;;;;;;;27.00;96.40;;;;;;5069505;28;19920;-46
2022/11/15 00:58:52;;;;;;;;;;;27.10;96.40;;;;;;5087546;28;19971;-49
2022/11/15 01:01:18;;;;;;;;;;;27.10;96.40;;;;;;5087443;28;20200;-45
2022/11/15 01:03:46;;;;;;;;;;;27.00;96.40;;;;;;5087502;28;20245;-48
2022/11/15 01:06:12;;;;;;;;;;;27.00;96.30;;;;;;5087059;28;19912;-43
2022/11/15 01:08:41;;;;;;;;;;;27.00;96.30;;;;;;5068869;28;19923;-38
2022/11/15 01:11:10;;;;;;;;;;;27.00;96.20;;;;;;5068627;28;19971;-46
2022/11/15 01:13:37;;;;;;;;;;;26.90;96.20;;;;;;5067942;28;19936;-47
2022/11/15 01:16:07;;;;;;;;;;;27.00;96.20;;;;;;5085547;28;19960;-43
2022/11/15 01:18:33;;;;;;;;;;;27.00;96.30;;;;;;5067229;28;20180;-42
2022/11/15 01:21:00;;;;;;;;;;;27.00;96.30;;;;;;5084510;28;20077;-41
2022/11/15 01:23:26;;;;;;;;;;;27.00;96.30;;;;;;5069774;28;19924;-47
2022/11/15 01:25:52;;;;;;;;;;;27.00;96.30;;;;;;5082695;28;20006;-49
2022/11/15 01:28:20;;;;;;;;;;;27.00;96.10;;;;;;5085014;28;19912;-52
2022/11/15 01:30:46;;;;;;;;;;;27.00;96.00;;;;;;5084912;28;19916;-46
2022/11/15 01:33:13;;;;;;;;;;;27.00;96.10;;;;;;5073883;28;19912;-42
2022/11/15 01:35:40;;;;;;;;;;;27.00;96.10;;;;;;5085174;28;19912;-42
2022/11/15 01:38:06;;;;;;;;;;;27.00;96.00;;;;;;5075561;28;19919;-42
2022/11/15 01:40:32;;;;;;;;;;;27.00;95.80;;;;;;5079991;28;20112;-51
2022/11/15 01:42:58;;;;;;;;;;;26.90;95.70;;;;;;5084831;28;19913;-45
2022/11/15 01:45:24;;;;;;;;;;;27.00;95.60;;;;;;5085365;28;19918;-42
2022/11/15 01:47:54;;;;;;;;;;;27.00;95.40;;;;;;5084740;28;19912;-44
2022/11/15 01:50:24;;;;;;;;;;;27.00;95.50;;;;;;5084986;28;19920;-47
2022/11/15 01:52:50;;;;;;;;;;;27.00;95.50;;;;;;5092811;28;21063;-43
2022/11/15 01:55:19;;;;;;;;;;;26.90;95.30;;;;;;5073243;28;19912;-41
2022/11/15 01:57:46;;;;;;;;;;;27.00;95.30;;;;;;5090138;28;19970;-46
2022/11/15 02:00:14;;;;;;;;;;;27.00;95.20;;;;;;5076035;28;20132;-54
2022/11/15 02:02:43;;;;;;;;;;;27.00;95.00;;;;;;5094753;28;19923;-48
2022/11/15 02:05:10;;;;;;;;;;;26.90;94.90;;;;;;5082881;28;19979;-43
2022/11/15 02:07:36;;;;;;;;;;;26.90;94.90;;;;;;5068229;28;20217;-49
2022/11/15 02:10:06;;;;;;;;;;;26.90;94.80;;;;;;5098599;28;19916;-54
2022/11/15 02:12:33;;;;;;;;;;;26.90;94.70;;;;;;5059685;28;19956;-48
2022/11/15 02:14:59;;;;;;;;;;;26.90;94.80;;;;;;5065649;28;19975;-52
2022/11/15 02:17:28;;;;;;;;;;;26.90;94.90;;;;;;5064990;28;19913;-51
2022/11/15 02:19:54;;;;;;;;;;;26.90;94.80;;;;;;5065494;28;19913;-45
2022/11/15 02:22:39;;;;;;;;;;;26.90;94.80;;;;;;5047375;28;19967;-48
2022/11/15 02:25:08;;;;;;;;;;;26.90;95.00;;;;;;5065361;28;19980;-47
2022/11/15 02:27:41;;;;;;;;;;;26.90;95.10;;;;;;5065621;28;19992;-47
2022/11/15 02:30:36;;;;;;;;;;;26.90;95.20;;;;;;5072076;28;19908;-42
2022/11/15 02:33:22;;;;;;;;;;;26.90;95.10;;;;;;5066027;28;19921;-49
2022/11/15 02:35:59;;;;;;;;;;;26.90;95.20;;;;;;5037547;28;19942;-50
2022/11/15 02:38:40;;;;;;;;;;;26.90;95.20;;;;;;5084728;28;19991;-47
2022/11/15 02:41:12;;;;;;;;;;;26.90;95.20;;;;;;5085586;28;20189;-46
2022/11/15 02:43:59;;;;;;;;;;;26.90;95.20;;;;;;5085650;28;19945;-47
2022/11/15 02:49:17;;;;;;;;;;;26.80;95.20;;;;;;5085320;28;19916;-47
2022/11/15 02:51:45;;;;;;;;;;;26.90;95.00;;;;;;5085454;28;20036;-51
2022/11/15 02:54:14;;;;;;;;;;;26.80;94.90;;;;;;5085416;28;19916;-48
2022/11/15 02:56:41;;;;;;;;;;;26.80;95.00;;;;;;5085131;28;19989;-45
2022/11/15 02:59:07;;;;;;;;;;;26.80;94.80;;;;;;5085146;28;19910;-45
2022/11/15 03:01:56;;;;;;;;;;;26.80;94.80;;;;;;5084767;28;20165;-42
2022/11/15 03:04:30;;;;;;;;;;;26.80;94.90;;;;;;5085306;28;19947;-51
2022/11/15 03:07:14;;;;;;;;;;;26.80;94.80;;;;;;5084994;28;20206;-51
2022/11/15 03:09:47;;;;;;;;;;;26.80;94.80;;;;;;5085566;28;19982;-49
2022/11/15 03:12:20;;;;;;;;;;;26.80;94.70;;;;;;5067215;28;19988;-42
2022/11/15 03:14:53;;;;;;;;;;;26.80;94.90;;;;;;5085459;28;19913;-47
2022/11/15 03:17:23;;;;;;;;;;;26.70;94.90;;;;;;5084466;28;19912;-46
2022/11/15 03:19:59;;;;;;;;;;;26.80;94.90;;;;;;5085114;28;20014;-45
2022/11/15 03:22:27;;;;;;;;;;;26.80;95.10;;;;;;5084816;28;19983;-46
2022/11/15 03:24:56;;;;;;;;;;;26.70;95.30;;;;;;5085208;28;19908;-43
2022/11/15 03:27:24;;;;;;;;;;;26.70;95.30;;;;;;5084607;28;19975;-46
2022/11/15 03:29:52;;;;;;;;;;;26.70;95.30;;;;;;5085066;28;19950;-45
2022/11/15 03:32:45;;;;;;;;;;;26.60;95.40;;;;;;5066267;28;20193;-55
2022/11/15 03:35:17;;;;;;;;;;;26.60;95.40;;;;;;5079759;28;20196;-47
2022/11/15 03:37:52;;;;;;;;;;;26.60;95.50;;;;;;5084480;28;19966;-53
2022/11/15 03:40:22;;;;;;;;;;;26.60;95.40;;;;;;5084616;28;19983;-43
2022/11/15 03:42:57;;;;;;;;;;;26.60;95.40;;;;;;5084247;28;19916;-53
2022/11/15 03:45:27;;;;;;;;;;;26.60;95.40;;;;;;5084317;28;19912;-51
2022/11/15 03:47:58;;;;;;;;;;;26.60;95.30;;;;;;5084116;28;20255;-43
2022/11/15 03:50:25;;;;;;;;;;;26.50;95.40;;;;;;5084259;28;19958;-43
2022/11/15 03:52:51;;;;;;;;;;;26.60;95.30;;;;;;5083873;28;19920;-52
2022/11/15 03:55:19;;;;;;;;;;;26.60;95.30;;;;;;5084176;28;19913;-48
2022/11/15 03:57:49;;;;;;;;;;;26.50;95.40;;;;;;5083216;28;20482;-44
2022/11/15 04:00:16;;;;;;;;;;;26.50;95.20;;;;;;5084220;28;19912;-45
2022/11/15 04:02:42;;;;;;;;;;;26.50;95.20;;;;;;5066098;28;19913;-46
2022/11/15 04:05:08;;;;;;;;;;;26.50;95.00;;;;;;5084361;28;20050;-42
2022/11/15 04:07:34;;;;;;;;;;;26.50;94.90;;;;;;5084160;28;19919;-46
2022/11/15 04:10:03;;;;;;;;;;;26.50;95.10;;;;;;5084684;28;19908;-49
2022/11/15 04:12:30;;;;;;;;;;;26.50;94.90;;;;;;5083991;28;19908;-45
2022/11/15 04:15:09;;;;;;;;;;;26.40;95.10;;;;;;5084565;28;20123;-44
2022/11/15 04:17:37;;;;;;;;;;;26.40;95.10;;;;;;5083349;28;20242;-47
2022/11/15 04:25:33;;;;;;;;;;;26.30;95.30;;;;;;5084125;28;19919;-45
2022/11/15 04:27:59;;;;;;;;;;;26.30;95.20;;;;;;5086256;28;20099;-49
2022/11/15 04:30:25;;;;;;;;;;;26.30;95.10;;;;;;5087866;28;19916;-43
2022/11/15 04:32:51;;;;;;;;;;;26.30;95.20;;;;;;5088058;28;19905;-42
2022/11/15 04:35:17;;;;;;;;;;;26.30;95.10;;;;;;5088268;28;19920;-46
2022/11/15 04:37:44;;;;;;;;;;;26.30;95.10;;;;;;5087810;28;19961;-45
2022/11/15 04:40:10;;;;;;;;;;;26.30;95.10;;;;;;5088468;28;19975;-48
2022/11/15 04:42:36;;;;;;;;;;;26.30;95.00;;;;;;5087694;28;19924;-44
2022/11/15 04:45:02;;;;;;;;;;;26.30;94.90;;;;;;5088211;28;19904;-55
2022/11/15 04:47:29;;;;;;;;;;;26.30;95.20;;;;;;5087913;28;19946;-50
2022/11/15 04:49:55;;;;;;;;;;;26.20;94.90;;;;;;5088043;28;19915;-47
2022/11/15 04:52:21;;;;;;;;;;;26.20;94.90;;;;;;5087464;28;19979;-43
2022/11/15 04:54:47;;;;;;;;;;;26.20;94.80;;;;;;5088024;28;19908;-45
2022/11/15 04:57:14;;;;;;;;;;;26.20;94.70;;;;;;5087397;28;20173;-47
2022/11/15 04:59:40;;;;;;;;;;;26.20;94.90;;;;;;5087657;28;19908;-44
2022/11/15 05:02:06;;;;;;;;;;;26.10;94.90;;;;;;5087682;28;19917;-48
2022/11/15 05:04:32;;;;;;;;;;;26.10;94.80;;;;;;5087379;28;19908;-49
2022/11/15 05:06:58;;;;;;;;;;;26.10;94.60;;;;;;5087400;28;20131;-51
2022/11/15 05:09:24;;;;;;;;;;;26.10;94.60;;;;;;5087421;28;19905;-46
2022/11/15 05:11:51;;;;;;;;;;;26.10;94.70;;;;;;5087261;28;19966;-48
2022/11/15 05:14:17;;;;;;;;;;;26.10;94.50;;;;;;5087632;28;19909;-50
2022/11/15 05:16:43;;;;;;;;;;;26.10;94.50;;;;;;5087059;28;19983;-41
2022/11/15 05:19:09;;;;;;;;;;;26.10;94.40;;;;;;5087301;28;19912;-47
2022/11/15 05:21:36;;;;;;;;;;;26.10;94.30;;;;;;5087308;28;19912;-48
2022/11/15 05:24:02;;;;;;;;;;;26.10;94.50;;;;;;5087070;28;20005;-46
2022/11/15 05:26:28;;;;;;;;;;;26.10;94.40;;;;;;5086885;28;19909;-43
2022/11/15 05:28:55;;;;;;;;;;;26.10;94.30;;;;;;5087219;28;19908;-42
2022/11/15 05:31:21;;;;;;;;;;;26.10;94.20;;;;;;5086760;28;19908;-44
2022/11/15 05:33:49;;;;;;;;;;;26.10;94.30;;;;;;5087177;28;20135;-46
2022/11/15 05:36:18;;;;;;;;;;;26.10;94.40;;;;;;5086869;28;19954;-47
2022/11/15 05:38:45;;;;;;;;;;;26.10;94.20;;;;;;5085653;28;19975;-51
2022/11/15 05:41:12;;;;;;;;;;;26.10;94.00;;;;;;5086487;28;19979;-41
2022/11/15 05:43:40;;;;;;;;;;;26.10;94.20;;;;;;5086890;28;20149;-45
2022/11/15 05:46:06;;;;;;;;;;;26.10;94.00;;;;;;5086497;28;19943;-42
2022/11/15 05:48:34;;;;;;;;;;;26.10;94.00;;;;;;5086843;28;19908;-46
2022/11/15 05:51:00;;;;;;;;;;;26.10;93.90;;;;;;5086595;28;19913;-50
2022/11/15 05:53:27;;;;;;;;;;;26.10;93.70;;;;;;5086198;28;20153;-49
2022/11/15 05:55:53;;;;;;;;;;;26.10;93.70;;;;;;5086562;28;19913;-49
2022/11/15 05:58:20;;;;;;;;;;;26.10;93.70;;;;;;5086642;28;19966;-42
2022/11/15 06:00:46;;;;;;;;;;;26.10;93.40;;;;;;5086246;28;19913;-46
2022/11/15 06:03:14;;;;;;;;;;;26.10;93.20;;;;;;5086205;28;19910;-46
2022/11/15 06:05:40;;;;;;;;;;;26.10;93.30;;;;;;5086311;28;19919;-48
2022/11/15 06:08:08;;;;;;;;;;;26.10;93.80;;;;;;5085931;28;19927;-43
2022/11/15 06:10:34;;;;;;;;;;;26.10;93.60;;;;;;5086238;28;19909;-44
2022/11/15 06:13:00;;;;;;;;;;;26.00;93.30;;;;;;5086107;28;20022;-44
2022/11/15 06:15:27;;;;;;;;;;;26.00;93.40;;;;;;5086032;28;19919;-44
2022/11/15 06:17:57;;;;;;;;;;;26.00;93.60;;;;;;5086108;28;19920;-47
2022/11/15 06:20:24;;;;;;;;;;;26.00;93.60;;;;;;5086270;28;19979;-46
2022/11/15 06:22:50;;;;;;;;;;;26.00;93.60;;;;;;5085852;28;19909;-60
2022/11/15 06:25:16;;;;;;;;;;;25.90;93.40;;;;;;5085953;28;19921;-61
2022/11/15 06:27:42;;;;;;;;;;;25.90;93.40;;;;;;5085866;28;19912;-52
2022/11/15 06:30:08;;;;;;;;;;;25.90;93.40;;;;;;5086315;28;19918;-44
2022/11/15 06:32:35;;;;;;;;;;;25.90;93.30;;;;;;5086042;28;20104;-46
2022/11/15 06:35:01;;;;;;;;;;;25.90;92.90;;;;;;5086347;28;19912;-54
2022/11/15 06:37:27;;;;;;;;;;;25.90;93.10;;;;;;5085707;28;19913;-53
2022/11/15 06:39:53;;;;;;;;;;;25.90;93.00;;;;;;5086035;28;19916;-46
2022/11/15 06:42:19;;;;;;;;;;;25.90;93.30;;;;;;5085503;28;19921;-43
2022/11/15 06:44:45;;;;;;;;;;;25.90;93.20;;;;;;5086040;28;19942;-48
2022/11/15 06:47:11;;;;;;;;;;;25.90;93.20;;;;;;5067553;28;19912;-44
2022/11/15 06:49:37;;;;;;;;;;;25.90;93.30;;;;;;5085833;28;19954;-58
2022/11/15 06:52:04;;;;;;;;;;;25.90;93.30;;;;;;5085144;28;20211;-48
2022/11/15 06:54:30;;;;;;;;;;;25.90;93.30;;;;;;5085586;28;19915;-47
2022/11/15 06:56:56;;;;;;;;;;;25.90;93.40;;;;;;5085437;28;20197;-43
2022/11/15 06:59:22;;;;;;;;;;;25.90;93.30;;;;;;5085634;28;19908;-43
2022/11/15 07:01:49;;;;;;;;;;;25.80;93.30;;;;;;5085129;28;19909;-45
2022/11/15 07:04:15;;;;;;;;;;;25.90;93.30;;;;;;5085438;28;19984;-44
2022/11/15 07:06:41;;;;;;;;;;;25.90;93.50;;;;;;5085157;28;20108;-52
2022/11/15 07:09:07;;;;;;;;;;;25.90;93.20;;;;;;5085265;28;20238;-54
2022/11/15 07:11:34;;;;;;;;;;;25.90;93.10;;;;;;5085162;28;19952;-43
2022/11/15 07:14:00;;;;;;;;;;;25.90;92.80;;;;;;5085280;28;19905;-47
2022/11/15 07:16:26;;;;;;;;;;;25.90;92.90;;;;;;5084958;28;20112;-45
2022/11/15 07:18:52;;;;;;;;;;;25.90;93.20;;;;;;5084968;28;19946;-47
2022/11/15 07:21:18;;;;;;;;;;;25.90;93.20;;;;;;5084930;28;19975;-44
2022/11/15 07:23:44;;;;;;;;;;;25.90;93.10;;;;;;5084902;28;19954;-46
2022/11/15 07:26:11;;;;;;;;;;;25.80;93.20;;;;;;5084629;28;20077;-48
2022/11/15 07:28:37;;;;;;;;;;;25.90;93.30;;;;;;5084852;28;19912;-42
2022/11/15 07:31:07;;;;;;;;;;;25.80;93.00;;;;;;5084645;28;19959;-42
2022/11/15 07:33:33;;;;;;;;;;;25.80;93.10;;;;;;5084533;28;19909;-47
2022/11/15 07:36:04;;;;;;;;;;;25.80;93.00;;;;;;5084639;28;19983;-49
2022/11/15 07:38:30;;;;;;;;;;;25.80;93.30;;;;;;5084775;28;19905;-42
2022/11/15 07:40:58;;;;;;;;;;;25.80;93.30;;;;;;5084352;28;20208;-47
2022/11/15 07:43:24;;;;;;;;;;;25.80;93.30;;;;;;5084296;28;20135;-49
2022/11/15 07:45:50;;;;;;;;;;;25.80;93.30;;;;;;5084617;28;19967;-44
2022/11/15 07:48:16;;;;;;;;;;;25.80;93.30;;;;;;5084423;28;19908;-45
2022/11/15 07:50:42;;;;;;;;;;;25.80;93.30;;;;;;5084379;28;19915;-44
2022/11/15 07:53:10;;;;;;;;;;;25.80;93.40;;;;;;5084399;28;19923;-44
2022/11/15 07:55:36;;;;;;;;;;;25.80;93.40;;;;;;5084149;28;19967;-51
2022/11/15 07:58:02;;;;;;;;;;;25.80;93.20;;;;;;5084404;28;19912;-45
2022/11/15 08:00:29;;;;;;;;;;;25.80;93.20;;;;;;5084330;28;19912;-47
2022/11/15 08:03:02;;;;;;;;;;;25.80;93.30;;;;;;5083443;28;19916;-44
2022/11/15 08:05:28;;;;;;;;;;;25.80;93.20;;;;;;5084426;28;20109;-48
2022/11/15 08:07:57;;;;;;;;;;;25.80;93.20;;;;;;5084207;28;20073;-47
2022/11/15 08:10:23;;;;;;;;;;;25.80;93.20;;;;;;5084206;28;19908;-48
2022/11/15 08:12:56;;;;;;;;;;;25.80;93.10;;;;;;5084375;28;19909;-42
2022/11/15 08:15:22;;;;;;;;;;;25.80;93.20;;;;;;5084288;28;19947;-49
2022/11/15 08:17:53;;;;;;;;;;;25.80;93.10;;;;;;5083900;28;19909;-57
2022/11/15 08:20:19;;;;;;;;;;;25.80;93.10;;;;;;5084173;28;19980;-41
2022/11/15 08:22:45;;;;;;;;;;;25.80;93.10;;;;;;5084051;28;19916;-42
2022/11/15 08:25:11;;;;;;;;;;;25.80;93.10;;;;;;5084506;28;20064;-48
2022/11/15 08:27:38;;;;;;;;;;;25.70;93.10;;;;;;5084387;28;19976;-46
2022/11/15 08:30:04;;;;;;;;;;;25.70;93.10;;;;;;5084446;28;20181;-50
2022/11/15 08:32:31;;;;;;;;;;;25.80;93.20;;;;;;5083883;28;20137;-47
2022/11/15 08:34:57;;;;;;;;;;;25.70;93.00;;;;;;5084416;28;19967;-51
2022/11/15 08:37:23;;;;;;;;;;;25.80;93.20;;;;;;5083881;28;19912;-46
2022/11/15 08:39:49;;;;;;;;;;;25.80;93.10;;;;;;5084317;28;20084;-42
2022/11/15 08:42:16;;;;;;;;;;;25.80;93.20;;;;;;5083770;28;19983;-42
2022/11/15 08:44:42;;;;;;;;;;;25.80;93.30;;;;;;5084263;28;19904;-46
2022/11/15 08:47:11;;;;;;;;;;;25.80;93.10;;;;;;5083902;28;20215;-45
2022/11/15 08:49:38;;;;;;;;;;;25.70;93.20;;;;;;5084248;28;19939;-45
2022/11/15 08:52:04;;;;;;;;;;;25.80;93.40;;;;;;5083753;28;19908;-48
2022/11/15 08:54:30;;;;;;;;;;;25.80;93.40;;;;;;5083962;28;19949;-46
2022/11/15 08:56:56;;;;;;;;;;;25.80;93.30;;;;;;5083826;28;19975;-45
2022/11/15 08:59:22;;;;;;;;;;;25.80;93.40;;;;;;5084101;28;19942;-51
2022/11/15 09:01:48;;;;;;;;;;;25.70;93.70;;;;;;5083688;28;19952;-44
2022/11/15 09:04:14;;;;;;;;;;;25.70;93.50;;;;;;5083937;28;19991;-51
2022/11/15 09:06:40;;;;;;;;;;;25.70;93.60;;;;;;5084031;28;19912;-46
2022/11/15 09:09:07;;;;;;;;;;;25.70;93.70;;;;;;5083819;28;19904;-49
2022/11/15 09:11:33;;;;;;;;;;;25.70;93.70;;;;;;5083728;28;19928;-47
2022/11/15 09:13:59;;;;;;;;;;;25.70;93.70;;;;;;5085503;28;20180;-44
2022/11/15 09:16:25;;;;;;;;;;;25.70;93.60;;;;;;5069588;28;19909;-50
2022/11/15 09:18:52;;;;;;;;;;;25.70;93.70;;;;;;5087321;28;19987;-54
2022/11/15 09:21:19;;;;;;;;;;;25.70;93.60;;;;;;5087242;28;19909;-53
2022/11/15 09:23:45;;;;;;;;;;;25.70;93.80;;;;;;5087026;28;19912;-51
2022/11/15 09:26:11;;;;;;;;;;;25.70;93.70;;;;;;5086934;28;19951;-47
2022/11/15 09:28:38;;;;;;;;;;;25.70;93.60;;;;;;5087389;28;19904;-53
2022/11/15 09:31:05;;;;;;;;;;;25.70;93.70;;;;;;5087091;28;19920;-45
2022/11/15 09:33:31;;;;;;;;;;;25.70;93.80;;;;;;5086881;28;19909;-42
2022/11/15 09:36:02;;;;;;;;;;;25.70;93.80;;;;;;5086841;28;19918;-46
2022/11/15 09:38:28;;;;;;;;;;;25.70;93.90;;;;;;5087029;28;20096;-47
2022/11/15 09:41:05;;;;;;;;;;;25.70;93.90;;;;;;5087041;28;19912;-48
2022/11/15 09:43:44;;;;;;;;;;;25.70;94.00;;;;;;5069155;28;20250;-49
2022/11/15 09:46:19;;;;;;;;;;;25.70;93.90;;;;;;5069323;28;19908;-45
2022/11/15 09:49:04;;;;;;;;;;;25.70;94.00;;;;;;5086911;28;19909;-46
2022/11/15 09:51:34;;;;;;;;;;;25.70;94.10;;;;;;5086831;28;19991;-45
2022/11/15 09:54:03;;;;;;;;;;;25.70;94.10;;;;;;5086778;28;19987;-44
2022/11/15 09:56:30;;;;;;;;;;;25.70;94.00;;;;;;5086347;28;19944;-50
2022/11/15 09:59:02;;;;;;;;;;;25.70;94.10;;;;;;5086683;28;19912;-43
2022/11/15 10:01:29;;;;;;;;;;;25.70;94.30;;;;;;5086562;28;20200;-44
2022/11/15 10:03:57;;;;;;;;;;;25.70;94.30;;;;;;5086307;28;19985;-45
2022/11/15 10:06:25;;;;;;;;;;;25.70;94.30;;;;;;5086082;28;19912;-44
2022/11/15 10:08:56;;;;;;;;;;;25.70;94.40;;;;;;5086539;28;19916;-46
2022/11/15 10:11:23;;;;;;;;;;;25.70;94.50;;;;;;5086174;28;20015;-49
2022/11/15 10:13:51;;;;;;;;;;;25.70;94.50;;;;;;5086224;28;20066;-42
2022/11/15 10:16:35;;;;;;;;;;;25.70;94.50;;;;;;5086246;28;19912;-51
2022/11/15 10:19:15;;;;;;;;;;;25.70;94.60;;;;;;5086330;28;19916;-45
2022/11/15 10:21:45;;;;;;;;;;;25.70;94.60;;;;;;5086131;28;19954;-47
2022/11/15 10:24:12;;;;;;;;;;;25.70;94.70;;;;;;5085971;28;20183;-43
2022/11/15 10:26:39;;;;;;;;;;;25.70;94.80;;;;;;5085179;28;19912;-49
2022/11/15 10:29:05;;;;;;;;;;;25.70;94.70;;;;;;5086101;28;20185;-47
2022/11/15 10:31:31;;;;;;;;;;;25.80;94.70;;;;;;5085689;28;19913;-52
